createdAt,value
2022-10-15T00:01:44.809Z,100.00
2022-10-15T00:04:13.757Z,100.00
2022-10-15T00:06:41.264Z,100.00
2022-10-15T00:09:08.797Z,100.00
2022-10-15T00:11:36.943Z,100.00
2022-10-15T00:14:04.629Z,100.00
2022-10-15T00:16:33.517Z,100.00
2022-10-15T00:19:01.174Z,100.00
2022-10-15T00:21:30.218Z,100.00
2022-10-15T00:23:58.246Z,100.00
2022-10-15T00:26:28.204Z,100.00
2022-10-15T00:28:57.961Z,100.00
2022-10-15T00:31:27.145Z,100.00
2022-10-15T00:33:55.870Z,100.00
2022-10-15T00:36:25.896Z,100.00
2022-10-15T00:38:54.883Z,100.00
2022-10-15T00:41:24.802Z,100.00
2022-10-15T00:43:56.231Z,100.00
2022-10-15T00:46:25.940Z,100.00
2022-10-15T00:48:57.811Z,100.00
2022-10-15T00:51:40.616Z,100.00
2022-10-15T00:54:11.160Z,100.00
2022-10-15T00:56:42.459Z,100.00
2022-10-15T00:59:12.421Z,100.00
2022-10-15T01:01:40.235Z,100.00
2022-10-15T01:04:08.967Z,100.00
2022-10-15T01:06:37.679Z,100.00
2022-10-15T01:09:05.745Z,100.00
2022-10-15T01:11:42.361Z,100.00
2022-10-15T01:14:29.303Z,100.00
2022-10-15T01:17:05.755Z,100.00
2022-10-15T01:19:58.603Z,100.00
2022-10-15T01:22:39.236Z,100.00
2022-10-15T01:25:23.571Z,100.00
2022-10-15T01:27:56.179Z,100.00
2022-10-15T01:30:27.628Z,100.00
2022-10-15T01:33:14.807Z,100.00
2022-10-15T01:35:49.596Z,100.00
2022-10-15T01:38:34.052Z,100.00
2022-10-15T01:41:09.753Z,100.00
2022-10-15T01:43:44.818Z,100.00
2022-10-15T01:46:58.766Z,100.00
2022-10-15T01:49:31.182Z,100.00
2022-10-15T01:52:01.900Z,100.00
2022-10-15T01:54:31.304Z,100.00
2022-10-15T01:57:00.446Z,100.00
2022-10-15T01:59:32.768Z,100.00
2022-10-15T02:02:01.978Z,100.00
2022-10-15T02:04:31.657Z,100.00
2022-10-15T02:07:03.254Z,100.00
2022-10-15T02:09:40.789Z,100.00
2022-10-15T02:12:16.515Z,100.00
2022-10-15T02:14:52.624Z,100.00
2022-10-15T02:17:28.945Z,100.00
2022-10-15T02:20:01.719Z,100.00
2022-10-15T02:22:35.377Z,100.00
2022-10-15T02:25:07.839Z,100.00
2022-10-15T02:27:38.216Z,100.00
2022-10-15T02:30:09.932Z,100.00
2022-10-15T02:32:42.239Z,100.00
2022-10-15T02:35:12.118Z,100.00
2022-10-15T02:37:48.374Z,100.00
2022-10-15T02:40:20.639Z,100.00
2022-10-15T02:42:50.036Z,100.00
2022-10-15T02:45:17.609Z,100.00
2022-10-15T02:47:46.853Z,100.00
2022-10-15T02:50:14.571Z,100.00
2022-10-15T02:52:42.133Z,100.00
2022-10-15T02:55:10.601Z,100.00
2022-10-15T02:57:38.221Z,100.00
2022-10-15T03:00:08.097Z,100.00
2022-10-15T03:02:36.084Z,100.00
2022-10-15T03:05:05.827Z,100.00
2022-10-15T03:07:33.610Z,100.00
2022-10-15T03:10:01.150Z,100.00
2022-10-15T03:12:29.110Z,100.00
2022-10-15T03:14:57.180Z,100.00
2022-10-15T03:17:25.804Z,100.00
2022-10-15T03:19:53.673Z,100.00
2022-10-15T03:22:24.001Z,100.00
2022-10-15T03:24:54.021Z,100.00
2022-10-15T03:27:27.575Z,100.00
2022-10-15T03:29:55.172Z,100.00
2022-10-15T03:32:25.037Z,100.00
2022-10-15T03:34:53.105Z,100.00
2022-10-15T03:37:21.853Z,100.00
2022-10-15T03:39:51.081Z,100.00
2022-10-15T03:42:19.575Z,100.00
2022-10-15T03:44:47.787Z,100.00
2022-10-15T03:47:19.053Z,100.00
2022-10-15T03:49:48.677Z,100.00
2022-10-15T03:52:16.573Z,100.00
2022-10-15T03:54:46.165Z,100.00
2022-10-15T03:57:17.784Z,100.00
2022-10-15T03:59:53.996Z,100.00
2022-10-15T04:02:24.705Z,100.00
2022-10-15T04:04:53.782Z,100.00
2022-10-15T04:07:21.742Z,100.00
2022-10-15T04:09:49.523Z,100.00
2022-10-15T04:12:25.520Z,100.00
2022-10-15T04:14:53.367Z,100.00
2022-10-15T04:17:20.948Z,100.00
2022-10-15T04:19:49.215Z,100.00
2022-10-15T04:22:16.883Z,100.00
2022-10-15T04:24:49.608Z,100.00
2022-10-15T04:27:27.995Z,100.00
2022-10-15T04:30:06.039Z,100.00
2022-10-15T04:32:33.900Z,100.00
2022-10-15T04:35:01.609Z,100.00
2022-10-15T04:37:48.072Z,100.00
2022-10-15T04:40:16.989Z,100.00
2022-10-15T04:42:45.916Z,100.00
2022-10-15T04:45:13.771Z,100.00
2022-10-15T04:47:41.396Z,100.00
2022-10-15T04:50:12.728Z,100.00
2022-10-15T04:53:00.412Z,100.00
2022-10-15T04:55:31.100Z,100.00
2022-10-15T04:58:02.140Z,100.00
2022-10-15T05:00:31.135Z,100.00
2022-10-15T05:03:37.445Z,100.00
2022-10-15T05:06:10.066Z,100.00
2022-10-15T05:08:41.802Z,100.00
2022-10-15T05:11:28.333Z,100.00
2022-10-15T05:13:59.852Z,100.00
2022-10-15T05:16:29.879Z,100.00
2022-10-15T05:19:01.980Z,100.00
2022-10-15T05:21:31.572Z,100.00
2022-10-15T05:24:02.323Z,100.00
2022-10-15T05:26:55.051Z,100.00
2022-10-15T05:29:25.344Z,100.00
2022-10-15T05:31:53.340Z,100.00
2022-10-15T05:34:28.501Z,100.00
2022-10-15T05:37:00.917Z,100.00
2022-10-15T05:39:28.488Z,100.00
2022-10-15T05:41:56.300Z,100.00
2022-10-15T05:44:34.379Z,100.00
2022-10-15T05:47:01.982Z,100.00
2022-10-15T05:49:29.538Z,100.00
2022-10-15T05:52:05.070Z,100.00
2022-10-15T05:54:58.553Z,100.00
2022-10-15T05:57:26.081Z,100.00
2022-10-15T05:59:54.967Z,100.00
2022-10-15T06:02:23.164Z,100.00
2022-10-15T06:04:53.258Z,100.00
2022-10-15T06:07:21.344Z,100.00
2022-10-15T06:09:48.996Z,100.00
2022-10-15T06:12:18.089Z,100.00
2022-10-15T06:14:45.625Z,100.00
2022-10-15T06:17:14.457Z,100.00
2022-10-15T06:19:42.979Z,100.00
2022-10-15T06:22:10.704Z,100.00
2022-10-15T06:24:38.247Z,100.00
2022-10-15T06:27:09.837Z,100.00
2022-10-15T06:29:37.357Z,100.00
2022-10-15T06:32:05.400Z,100.00
2022-10-15T06:34:34.223Z,100.00
2022-10-15T06:37:01.789Z,100.00
2022-10-15T06:39:29.348Z,100.00
2022-10-15T06:41:56.986Z,100.00
2022-10-15T06:44:30.900Z,100.00
2022-10-15T06:46:58.898Z,100.00
2022-10-15T06:49:26.486Z,100.00
2022-10-15T06:51:58.387Z,100.00
2022-10-15T06:54:28.468Z,100.00
2022-10-15T06:56:56.042Z,100.00
2022-10-15T06:59:23.568Z,100.00
2022-10-15T07:01:51.161Z,100.00
2022-10-15T07:04:18.725Z,100.00
2022-10-15T07:06:46.476Z,100.00
2022-10-15T07:09:19.330Z,100.00
2022-10-15T07:11:46.841Z,100.00
2022-10-15T07:14:14.376Z,100.00
2022-10-15T07:16:41.924Z,100.00
2022-10-15T07:19:09.453Z,100.00
2022-10-15T07:21:37.046Z,100.00
2022-10-15T07:24:04.983Z,100.00
2022-10-15T07:26:35.548Z,100.00
2022-10-15T07:29:03.769Z,99.56
2022-10-15T07:31:31.487Z,99.89
2022-10-15T07:33:59.116Z,99.34
2022-10-15T07:36:27.472Z,98.69
2022-10-15T07:38:55.057Z,98.38
2022-10-15T07:41:23.242Z,98.05
2022-10-15T07:43:54.091Z,97.89
2022-10-15T07:46:21.631Z,97.18
2022-10-15T07:48:55.929Z,97.86
2022-10-15T07:51:23.560Z,98.00
2022-10-15T07:53:51.173Z,97.51
2022-10-15T07:56:19.176Z,97.76
2022-10-15T07:58:51.905Z,97.09
2022-10-15T08:01:21.993Z,96.94
2022-10-15T08:03:49.636Z,96.43
2022-10-15T08:06:17.271Z,94.84
2022-10-15T08:08:44.959Z,95.33
2022-10-15T08:11:14.206Z,95.30
2022-10-15T08:13:42.955Z,95.42
2022-10-15T08:16:11.853Z,95.18
2022-10-15T08:18:41.365Z,95.20
2022-10-15T08:21:09.545Z,94.60
2022-10-15T08:23:37.440Z,93.43
2022-10-15T08:26:05.889Z,94.16
2022-10-15T08:28:35.003Z,95.25
2022-10-15T08:31:05.551Z,95.63
2022-10-15T08:33:35.018Z,96.29
2022-10-15T08:36:06.194Z,95.82
2022-10-15T08:38:34.205Z,96.44
2022-10-15T08:41:04.173Z,97.25
2022-10-15T08:43:36.272Z,97.53
2022-10-15T08:46:10.807Z,97.77
2022-10-15T08:48:43.636Z,97.85
2022-10-15T08:51:15.881Z,98.49
2022-10-15T08:53:47.287Z,99.27
2022-10-15T08:56:18.854Z,98.96
2022-10-15T08:58:54.589Z,97.66
2022-10-15T09:01:27.582Z,97.54
2022-10-15T09:04:07.814Z,97.01
2022-10-15T09:06:38.815Z,96.62
2022-10-15T09:09:12.995Z,96.82
2022-10-15T09:11:52.205Z,96.24
2022-10-15T09:14:25.537Z,95.71
2022-10-15T09:16:52.948Z,95.27
2022-10-15T09:19:22.569Z,94.40
2022-10-15T09:21:52.892Z,95.07
2022-10-15T09:24:24.510Z,94.96
2022-10-15T09:27:06.703Z,93.44
2022-10-15T09:29:41.492Z,92.38
2022-10-15T09:32:17.626Z,91.94
2022-10-15T09:34:49.597Z,90.34
2022-10-15T09:37:25.093Z,89.01
2022-10-15T09:40:14.602Z,88.08
2022-10-15T09:42:43.685Z,87.62
2022-10-15T09:45:16.805Z,87.48
2022-10-15T09:47:45.289Z,86.88
2022-10-15T09:50:15.127Z,86.36
2022-10-15T09:53:01.148Z,86.76
2022-10-15T09:55:42.709Z,86.03
2022-10-15T09:58:15.595Z,85.15
2022-10-15T10:00:59.532Z,87.78
2022-10-15T10:03:37.237Z,88.43
2022-10-15T10:06:08.100Z,88.29
2022-10-15T10:11:20.782Z,92.46
2022-10-15T10:13:52.669Z,93.91
2022-10-15T10:16:21.999Z,93.70
2022-10-15T10:19:06.856Z,94.21
2022-10-15T10:21:36.152Z,93.33
2022-10-15T10:24:23.331Z,92.74
2022-10-15T10:26:51.122Z,92.84
2022-10-15T10:29:33.477Z,93.00
2022-10-15T10:32:11.964Z,90.83
2022-10-15T10:34:39.852Z,90.03
2022-10-15T10:37:10.047Z,89.88
2022-10-15T10:39:39.132Z,87.61
2022-10-15T10:42:08.888Z,87.30
2022-10-15T10:44:38.710Z,87.51
2022-10-15T10:47:15.232Z,81.93
2022-10-15T10:49:45.173Z,85.06
2022-10-15T10:52:27.270Z,83.42
2022-10-15T10:55:01.180Z,82.12
2022-10-15T10:57:39.690Z,82.55
2022-10-15T11:00:09.651Z,81.88
2022-10-15T11:02:43.723Z,81.30
2022-10-15T11:05:12.024Z,80.05
2022-10-15T11:07:47.684Z,79.86
2022-10-15T11:10:22.297Z,79.39
2022-10-15T11:13:03.731Z,78.02
2022-10-15T11:15:50.761Z,76.89
2022-10-15T11:18:32.680Z,75.94
2022-10-15T11:21:11.552Z,76.84
2022-10-15T11:23:54.047Z,76.18
2022-10-15T11:26:51.995Z,76.87
2022-10-15T11:29:39.701Z,76.57
2022-10-15T11:32:23.295Z,76.92
2022-10-15T11:35:12.293Z,76.02
2022-10-15T11:37:52.064Z,76.87
2022-10-15T11:40:25.823Z,77.38
2022-10-15T11:42:59.464Z,77.85
2022-10-15T11:45:49.539Z,77.03
2022-10-15T11:48:26.933Z,76.79
2022-10-15T11:50:58.489Z,76.76
2022-10-15T11:53:44.589Z,76.83
2022-10-15T11:56:14.823Z,76.29
2022-10-15T11:58:48.751Z,76.46
2022-10-15T12:01:21.113Z,76.10
2022-10-15T12:03:55.021Z,76.71
2022-10-15T12:06:26.405Z,75.44
2022-10-15T12:08:56.119Z,75.93
2022-10-15T12:11:32.663Z,75.77
2022-10-15T12:14:08.191Z,75.25
2022-10-15T12:16:45.132Z,75.78
2022-10-15T12:19:18.229Z,77.19
2022-10-15T12:22:13.712Z,77.79
2022-10-15T12:24:53.405Z,75.89
2022-10-15T12:27:29.581Z,75.17
2022-10-15T12:30:32.209Z,76.46
2022-10-15T12:32:59.831Z,77.20
2022-10-15T12:35:36.137Z,76.47
2022-10-15T12:38:13.196Z,78.06
2022-10-15T12:40:41.579Z,78.25
2022-10-15T12:43:15.137Z,78.68
2022-10-15T12:45:54.933Z,78.76
2022-10-15T12:48:31.692Z,78.73
2022-10-15T12:51:38.168Z,79.60
2022-10-15T12:54:37.531Z,80.69
2022-10-15T12:57:43.428Z,80.31
2022-10-15T13:00:41.171Z,80.81
2022-10-15T13:03:35.318Z,81.71
2022-10-15T13:06:23.475Z,81.75
2022-10-15T13:08:54.340Z,82.00
2022-10-15T13:11:25.323Z,81.93
2022-10-15T13:13:58.327Z,82.44
2022-10-15T13:16:25.995Z,82.89
2022-10-15T13:18:57.152Z,82.69
2022-10-15T13:21:49.428Z,81.78
2022-10-15T13:24:20.600Z,81.45
2022-10-15T13:26:48.257Z,82.67
2022-10-15T13:29:19.879Z,82.25
2022-10-15T13:31:48.147Z,83.19
2022-10-15T13:34:25.644Z,83.60
2022-10-15T13:36:54.906Z,83.75
2022-10-15T13:39:28.245Z,85.32
2022-10-15T13:42:07.721Z,84.40
2022-10-15T13:44:35.899Z,85.96
2022-10-15T13:47:04.157Z,86.39
2022-10-15T13:49:33.116Z,86.85
2022-10-15T13:52:00.666Z,88.00
2022-10-15T13:54:31.731Z,90.13
2022-10-15T13:57:01.932Z,89.05
2022-10-15T13:59:31.690Z,89.87
2022-10-15T14:02:01.616Z,89.40
2022-10-15T14:04:30.889Z,89.66
2022-10-15T14:07:03.048Z,89.04
2022-10-15T14:09:34.262Z,88.89
2022-10-15T14:12:03.588Z,88.22
2022-10-15T14:14:35.059Z,88.28
2022-10-15T14:17:05.342Z,87.10
2022-10-15T14:19:34.780Z,86.77
2022-10-15T14:22:04.361Z,87.26
2022-10-15T14:24:34.753Z,87.11
2022-10-15T14:27:06.231Z,86.72
2022-10-15T14:29:39.738Z,87.13
2022-10-15T14:32:26.155Z,88.43
2022-10-15T14:34:55.198Z,89.09
2022-10-15T14:37:41.189Z,87.86
2022-10-15T14:40:19.557Z,88.34
2022-10-15T14:42:49.569Z,88.45
2022-10-15T14:45:26.931Z,88.67
2022-10-15T14:47:56.968Z,88.95
2022-10-15T14:50:26.729Z,89.01
2022-10-15T14:52:56.228Z,89.35
2022-10-15T14:55:33.018Z,88.93
2022-10-15T14:58:02.868Z,88.12
2022-10-15T15:00:33.977Z,88.25
2022-10-15T15:03:05.347Z,87.97
2022-10-15T15:05:45.523Z,89.92
2022-10-15T15:08:14.585Z,90.21
2022-10-15T15:10:42.909Z,89.55
2022-10-15T15:13:13.291Z,86.41
2022-10-15T15:15:41.467Z,85.92
2022-10-15T15:18:10.930Z,86.93
2022-10-15T15:20:38.804Z,86.61
2022-10-15T15:23:06.735Z,84.94
2022-10-15T15:25:37.018Z,86.46
2022-10-15T15:28:05.330Z,86.81
2022-10-15T15:30:35.287Z,86.95
2022-10-15T15:33:02.891Z,85.96
2022-10-15T15:35:36.120Z,85.84
2022-10-15T15:38:03.811Z,85.66
2022-10-15T15:40:31.900Z,86.08
2022-10-15T15:43:00.801Z,86.06
2022-10-15T15:45:29.564Z,86.39
2022-10-15T15:47:58.577Z,86.43
2022-10-15T15:50:26.259Z,85.45
2022-10-15T15:52:53.745Z,86.92
2022-10-15T15:55:21.411Z,86.73
2022-10-15T15:57:48.927Z,86.88
2022-10-15T16:00:18.156Z,87.19
2022-10-15T16:02:45.744Z,87.55
2022-10-15T16:05:15.873Z,86.41
2022-10-15T16:07:43.587Z,86.96
2022-10-15T16:10:12.516Z,87.71
2022-10-15T16:12:40.289Z,87.93
2022-10-15T16:15:13.413Z,87.98
2022-10-15T16:17:44.077Z,86.75
2022-10-15T16:20:12.635Z,87.65
2022-10-15T16:22:40.389Z,89.05
2022-10-15T16:25:09.267Z,89.53
2022-10-15T16:27:36.915Z,90.26
2022-10-15T16:30:05.126Z,90.65
2022-10-15T16:32:32.634Z,90.79
2022-10-15T16:35:01.820Z,91.16
2022-10-15T16:37:29.363Z,91.77
2022-10-15T16:39:56.981Z,92.43
2022-10-15T16:42:24.497Z,92.56
2022-10-15T16:44:52.666Z,93.73
2022-10-15T16:47:21.272Z,93.88
2022-10-15T16:49:48.815Z,94.25
2022-10-15T16:52:17.795Z,94.70
2022-10-15T16:54:45.296Z,95.43
2022-10-15T16:57:12.874Z,95.40
2022-10-15T16:59:40.516Z,95.77
2022-10-15T17:02:08.165Z,96.12
2022-10-15T17:04:35.769Z,96.37
2022-10-15T17:07:03.657Z,96.38
2022-10-15T17:09:32.568Z,96.67
2022-10-15T17:12:00.240Z,97.33
2022-10-15T17:14:27.865Z,97.30
2022-10-15T17:16:55.402Z,97.05
2022-10-15T17:19:28.964Z,97.74
2022-10-15T17:21:59.552Z,97.82
2022-10-15T17:24:27.158Z,98.42
2022-10-15T17:26:57.818Z,98.73
2022-10-15T17:29:29.054Z,98.91
2022-10-15T17:32:01.168Z,99.52
2022-10-15T17:34:28.781Z,99.88
2022-10-15T17:36:56.789Z,99.29
2022-10-15T17:39:24.745Z,98.81
2022-10-15T17:41:52.623Z,98.97
2022-10-15T17:44:21.666Z,98.93
2022-10-15T17:46:50.014Z,98.39
2022-10-15T17:49:19.208Z,98.65
2022-10-15T17:51:47.989Z,98.93
2022-10-15T17:54:15.697Z,99.08
2022-10-15T17:56:43.596Z,99.08
2022-10-15T17:59:13.329Z,99.31
2022-10-15T18:02:00.770Z,99.78
2022-10-15T18:04:33.107Z,100.00
2022-10-15T18:07:00.622Z,100.00
2022-10-15T18:09:28.945Z,100.00
2022-10-15T18:12:00.304Z,100.00
2022-10-15T18:14:34.804Z,100.00
2022-10-15T18:17:04.294Z,100.00
2022-10-15T18:19:31.978Z,100.00
2022-10-15T18:21:59.563Z,100.00
2022-10-15T18:24:27.209Z,100.00
2022-10-15T18:26:54.811Z,100.00
2022-10-15T18:29:25.044Z,100.00
2022-10-15T18:31:57.378Z,100.00
2022-10-15T18:34:28.691Z,100.00
2022-10-15T18:36:56.339Z,100.00
2022-10-15T18:39:24.468Z,100.00
2022-10-15T18:41:52.061Z,100.00
2022-10-15T18:44:21.434Z,100.00
2022-10-15T18:46:49.168Z,100.00
2022-10-15T18:49:18.580Z,100.00
2022-10-15T18:51:51.427Z,100.00
2022-10-15T18:54:19.093Z,100.00
2022-10-15T18:56:46.719Z,100.00
2022-10-15T18:59:16.023Z,100.00
2022-10-15T19:01:44.189Z,100.00
2022-10-15T19:04:13.695Z,100.00
2022-10-15T19:06:43.507Z,100.00
2022-10-15T19:09:14.067Z,100.00
2022-10-15T19:11:42.908Z,100.00
2022-10-15T19:14:10.624Z,100.00
2022-10-15T19:16:38.404Z,100.00
2022-10-15T19:19:15.496Z,100.00
2022-10-15T19:21:43.180Z,100.00
2022-10-15T19:24:12.216Z,100.00
2022-10-15T19:26:39.904Z,100.00
2022-10-15T19:29:07.520Z,100.00
2022-10-15T19:31:37.229Z,100.00
2022-10-15T19:34:05.224Z,100.00
2022-10-15T19:36:36.291Z,100.00
2022-10-15T19:39:07.938Z,100.00
2022-10-15T19:41:38.161Z,100.00
2022-10-15T19:44:07.761Z,100.00
2022-10-15T19:46:35.540Z,100.00
2022-10-15T19:49:03.060Z,100.00
2022-10-15T19:51:31.495Z,100.00
2022-10-15T19:54:00.008Z,100.00
2022-10-15T19:56:30.852Z,100.00
2022-10-15T19:59:02.064Z,100.00
2022-10-15T20:01:30.640Z,100.00
2022-10-15T20:04:03.153Z,100.00
2022-10-15T20:06:34.434Z,100.00
2022-10-15T20:09:02.074Z,100.00
2022-10-15T20:11:29.615Z,100.00
2022-10-15T20:13:57.473Z,100.00
2022-10-15T20:16:28.712Z,100.00
2022-10-15T20:18:59.161Z,100.00
2022-10-15T20:21:26.824Z,100.00
2022-10-15T20:23:54.458Z,100.00
2022-10-15T20:26:22.673Z,100.00
2022-10-15T20:28:50.521Z,100.00
2022-10-15T20:31:20.501Z,100.00
2022-10-15T20:33:50.945Z,100.00
2022-10-15T20:36:23.521Z,100.00
2022-10-15T20:38:51.799Z,100.00
2022-10-15T20:41:19.849Z,100.00
2022-10-15T20:43:52.732Z,100.00
2022-10-15T20:46:24.615Z,100.00
2022-10-15T20:48:54.964Z,100.00
2022-10-15T20:51:25.985Z,100.00
2022-10-15T20:53:56.661Z,100.00
2022-10-15T20:56:24.602Z,100.00
2022-10-15T20:58:52.157Z,100.00
2022-10-15T21:01:20.655Z,100.00
2022-10-15T21:03:48.256Z,100.00
2022-10-15T21:06:17.638Z,100.00
2022-10-15T21:08:45.171Z,100.00
2022-10-15T21:11:12.703Z,100.00
2022-10-15T21:13:40.290Z,100.00
2022-10-15T21:16:08.805Z,100.00
2022-10-15T21:18:37.260Z,100.00
2022-10-15T21:21:05.952Z,100.00
2022-10-15T21:23:35.527Z,100.00
2022-10-15T21:26:06.765Z,100.00
2022-10-15T21:28:35.110Z,100.00
2022-10-15T21:31:06.083Z,100.00
2022-10-15T21:33:33.838Z,100.00
2022-10-15T21:36:10.423Z,100.00
2022-10-15T21:38:39.323Z,100.00
2022-10-15T21:41:07.116Z,100.00
2022-10-15T21:43:34.733Z,100.00
2022-10-15T21:46:07.415Z,100.00
2022-10-15T21:48:36.459Z,100.00
2022-10-15T21:51:04.219Z,100.00
2022-10-15T21:53:31.750Z,100.00
2022-10-15T21:56:00.683Z,100.00
2022-10-15T21:58:28.171Z,100.00
2022-10-15T22:00:55.708Z,100.00
2022-10-15T22:03:23.404Z,100.00
2022-10-15T22:05:51.144Z,100.00
2022-10-15T22:08:18.648Z,100.00
2022-10-15T22:10:46.245Z,100.00
2022-10-15T22:13:15.081Z,100.00
2022-10-15T22:15:42.579Z,100.00
2022-10-15T22:18:10.079Z,100.00
2022-10-15T22:20:37.677Z,100.00
2022-10-15T22:23:05.247Z,100.00
2022-10-15T22:25:32.748Z,100.00
2022-10-15T22:28:00.275Z,100.00
2022-10-15T22:30:29.113Z,100.00
2022-10-15T22:32:56.604Z,100.00
2022-10-15T22:35:24.102Z,100.00
2022-10-15T22:37:52.772Z,100.00
2022-10-15T22:40:20.319Z,100.00
2022-10-15T22:42:48.413Z,100.00
2022-10-15T22:45:16.220Z,100.00
2022-10-15T22:47:45.051Z,100.00
2022-10-15T22:50:12.554Z,100.00
2022-10-15T22:52:40.042Z,100.00
2022-10-15T22:55:07.978Z,100.00
2022-10-15T22:57:35.488Z,100.00
2022-10-15T23:00:02.999Z,100.00
2022-10-15T23:02:30.557Z,100.00
2022-10-15T23:04:59.397Z,100.00
2022-10-15T23:07:26.958Z,100.00
2022-10-15T23:09:54.423Z,100.00
2022-10-15T23:12:22.410Z,100.00
2022-10-15T23:14:49.916Z,100.00
2022-10-15T23:17:17.514Z,100.00
2022-10-15T23:19:45.059Z,100.00
2022-10-15T23:22:13.876Z,100.00
2022-10-15T23:24:41.387Z,100.00
2022-10-15T23:27:09.920Z,100.00
2022-10-15T23:29:37.586Z,100.00
2022-10-15T23:32:05.270Z,100.00
2022-10-15T23:34:32.821Z,100.00
2022-10-15T23:37:00.312Z,100.00
2022-10-15T23:39:29.132Z,100.00
2022-10-15T23:41:56.679Z,100.00
2022-10-15T23:44:26.573Z,100.00
2022-10-15T23:46:54.222Z,100.00
2022-10-15T23:49:21.756Z,100.00
2022-10-15T23:51:49.398Z,100.00
2022-10-15T23:54:19.441Z,100.00
2022-10-15T23:56:49.397Z,100.00
2022-10-15T23:59:18.146Z,100.00
